sensor_id;sensor_type;location;lat;lon;timestamp;temperature;humidity
69543;SHT31;56762;49.494;11.768;2024-01-25T00:01:09;6.19;80.99
69543;SHT31;56762;49.494;11.768;2024-01-25T00:03:41;6.21;81.05
69543;SHT31;56762;49.494;11.768;2024-01-25T00:06:09;6.15;81.19
69543;SHT31;56762;49.494;11.768;2024-01-25T00:08:38;6.18;81.58
69543;SHT31;56762;49.494;11.768;2024-01-25T00:11:06;6.16;81.64
69543;SHT31;56762;49.494;11.768;2024-01-25T00:13:36;6.19;81.17
69543;SHT31;56762;49.494;11.768;2024-01-25T00:16:05;6.19;81.47
69543;SHT31;56762;49.494;11.768;2024-01-25T00:18:34;6.16;81.97
69543;SHT31;56762;49.494;11.768;2024-01-25T00:21:05;6.18;81.50
69543;SHT31;56762;49.494;11.768;2024-01-25T00:23:33;6.15;81.62
69543;SHT31;56762;49.494;11.768;2024-01-25T00:26:01;6.26;81.41
69543;SHT31;56762;49.494;11.768;2024-01-25T00:28:28;6.28;81.83
69543;SHT31;56762;49.494;11.768;2024-01-25T00:30:56;6.30;81.79
69543;SHT31;56762;49.494;11.768;2024-01-25T00:33:24;6.33;81.99
69543;SHT31;56762;49.494;11.768;2024-01-25T00:35:54;6.36;81.80
69543;SHT31;56762;49.494;11.768;2024-01-25T00:38:23;6.35;81.80
69543;SHT31;56762;49.494;11.768;2024-01-25T00:40:51;6.37;81.86
69543;SHT31;56762;49.494;11.768;2024-01-25T00:43:19;6.36;81.43
69543;SHT31;56762;49.494;11.768;2024-01-25T00:45:48;6.37;81.67
69543;SHT31;56762;49.494;11.768;2024-01-25T00:48:17;6.42;81.73
69543;SHT31;56762;49.494;11.768;2024-01-25T00:50:46;6.42;81.93
69543;SHT31;56762;49.494;11.768;2024-01-25T00:53:16;6.40;81.85
69543;SHT31;56762;49.494;11.768;2024-01-25T00:55:44;6.44;81.39
69543;SHT31;56762;49.494;11.768;2024-01-25T00:58:12;6.42;81.49
69543;SHT31;56762;49.494;11.768;2024-01-25T01:00:41;6.42;81.64
69543;SHT31;56762;49.494;11.768;2024-01-25T01:03:09;6.42;81.60
69543;SHT31;56762;49.494;11.768;2024-01-25T01:05:38;6.39;81.78
69543;SHT31;56762;49.494;11.768;2024-01-25T01:08:07;6.40;81.73
69543;SHT31;56762;49.494;11.768;2024-01-25T01:10:37;6.40;81.66
69543;SHT31;56762;49.494;11.768;2024-01-25T01:13:05;6.40;81.88
69543;SHT31;56762;49.494;11.768;2024-01-25T01:15:33;6.35;81.88
69543;SHT31;56762;49.494;11.768;2024-01-25T01:18:01;6.35;81.83
69543;SHT31;56762;49.494;11.768;2024-01-25T01:20:29;6.36;81.68
69543;SHT31;56762;49.494;11.768;2024-01-25T01:22:57;6.36;81.66
69543;SHT31;56762;49.494;11.768;2024-01-25T01:25:24;6.37;81.56
69543;SHT31;56762;49.494;11.768;2024-01-25T01:27:54;6.37;81.51
69543;SHT31;56762;49.494;11.768;2024-01-25T01:30:22;6.35;81.80
69543;SHT31;56762;49.494;11.768;2024-01-25T01:32:50;6.33;81.74
69543;SHT31;56762;49.494;11.768;2024-01-25T01:35:18;6.32;81.85
69543;SHT31;56762;49.494;11.768;2024-01-25T01:37:46;6.33;82.06
69543;SHT31;56762;49.494;11.768;2024-01-25T01:40:14;6.33;81.66
69543;SHT31;56762;49.494;11.768;2024-01-25T01:42:42;6.33;81.94
69543;SHT31;56762;49.494;11.768;2024-01-25T01:45:12;6.32;81.75
69543;SHT31;56762;49.494;11.768;2024-01-25T01:47:40;6.32;81.76
69543;SHT31;56762;49.494;11.768;2024-01-25T01:50:09;6.26;81.98
69543;SHT31;56762;49.494;11.768;2024-01-25T01:52:37;6.30;82.48
69543;SHT31;56762;49.494;11.768;2024-01-25T01:55:06;6.33;81.97
69543;SHT31;56762;49.494;11.768;2024-01-25T01:57:35;6.35;81.86
69543;SHT31;56762;49.494;11.768;2024-01-25T02:00:06;6.37;82.10
69543;SHT31;56762;49.494;11.768;2024-01-25T02:02:38;6.40;81.91
69543;SHT31;56762;49.494;11.768;2024-01-25T02:05:06;6.35;81.67
69543;SHT31;56762;49.494;11.768;2024-01-25T02:07:34;6.37;81.60
69543;SHT31;56762;49.494;11.768;2024-01-25T02:10:04;6.39;81.51
69543;SHT31;56762;49.494;11.768;2024-01-25T02:12:32;6.37;81.62
69543;SHT31;56762;49.494;11.768;2024-01-25T02:15:00;6.36;82.37
69543;SHT31;56762;49.494;11.768;2024-01-25T02:17:28;6.39;81.75
69543;SHT31;56762;49.494;11.768;2024-01-25T02:19:57;6.37;81.74
69543;SHT31;56762;49.494;11.768;2024-01-25T02:22:27;6.39;81.92
69543;SHT31;56762;49.494;11.768;2024-01-25T02:24:55;6.37;82.12
69543;SHT31;56762;49.494;11.768;2024-01-25T02:27:23;6.39;81.86
69543;SHT31;56762;49.494;11.768;2024-01-25T02:29:51;6.40;82.12
69543;SHT31;56762;49.494;11.768;2024-01-25T02:32:19;6.40;82.19
69543;SHT31;56762;49.494;11.768;2024-01-25T02:34:46;6.40;81.85
69543;SHT31;56762;49.494;11.768;2024-01-25T02:37:15;6.42;81.78
69543;SHT31;56762;49.494;11.768;2024-01-25T02:39:45;6.39;81.89
69543;SHT31;56762;49.494;11.768;2024-01-25T02:42:13;6.40;81.96
69543;SHT31;56762;49.494;11.768;2024-01-25T02:44:43;6.39;82.07
69543;SHT31;56762;49.494;11.768;2024-01-25T02:47:11;6.37;81.98
69543;SHT31;56762;49.494;11.768;2024-01-25T02:49:42;6.37;81.96
69543;SHT31;56762;49.494;11.768;2024-01-25T02:52:10;6.39;82.53
69543;SHT31;56762;49.494;11.768;2024-01-25T02:54:37;6.37;82.21
69543;SHT31;56762;49.494;11.768;2024-01-25T02:57:07;6.43;81.55
69543;SHT31;56762;49.494;11.768;2024-01-25T02:59:35;6.46;81.37
69543;SHT31;56762;49.494;11.768;2024-01-25T03:02:03;6.46;81.73
69543;SHT31;56762;49.494;11.768;2024-01-25T03:04:31;6.46;81.94
69543;SHT31;56762;49.494;11.768;2024-01-25T03:06:59;6.46;81.95
69543;SHT31;56762;49.494;11.768;2024-01-25T03:09:27;6.47;81.60
69543;SHT31;56762;49.494;11.768;2024-01-25T03:11:55;6.49;81.27
69543;SHT31;56762;49.494;11.768;2024-01-25T03:14:24;6.50;81.15
69543;SHT31;56762;49.494;11.768;2024-01-25T03:16:52;6.46;81.36
69543;SHT31;56762;49.494;11.768;2024-01-25T03:19:24;6.46;81.05
69543;SHT31;56762;49.494;11.768;2024-01-25T03:21:52;6.42;81.56
69543;SHT31;56762;49.494;11.768;2024-01-25T03:24:21;6.40;80.97
69543;SHT31;56762;49.494;11.768;2024-01-25T03:26:49;6.43;81.40
69543;SHT31;56762;49.494;11.768;2024-01-25T03:29:17;6.40;81.60
69543;SHT31;56762;49.494;11.768;2024-01-25T03:31:47;6.37;81.29
69543;SHT31;56762;49.494;11.768;2024-01-25T03:34:14;6.33;81.46
69543;SHT31;56762;49.494;11.768;2024-01-25T03:36:43;6.30;81.26
69543;SHT31;56762;49.494;11.768;2024-01-25T03:39:11;6.32;81.66
69543;SHT31;56762;49.494;11.768;2024-01-25T03:41:39;6.33;81.79
69543;SHT31;56762;49.494;11.768;2024-01-25T03:44:06;6.35;81.55
69543;SHT31;56762;49.494;11.768;2024-01-25T03:46:34;6.36;80.96
69543;SHT31;56762;49.494;11.768;2024-01-25T03:49:04;6.36;80.94
69543;SHT31;56762;49.494;11.768;2024-01-25T03:51:32;6.30;81.09
69543;SHT31;56762;49.494;11.768;2024-01-25T03:54:00;6.32;81.50
69543;SHT31;56762;49.494;11.768;2024-01-25T03:56:28;6.28;81.34
69543;SHT31;56762;49.494;11.768;2024-01-25T03:58:56;6.25;81.80
69543;SHT31;56762;49.494;11.768;2024-01-25T04:01:24;6.28;81.28
69543;SHT31;56762;49.494;11.768;2024-01-25T04:03:57;6.28;81.69
69543;SHT31;56762;49.494;11.768;2024-01-25T04:06:26;6.26;81.84
69543;SHT31;56762;49.494;11.768;2024-01-25T04:08:54;6.28;81.85
69543;SHT31;56762;49.494;11.768;2024-01-25T04:11:22;6.35;81.78
69543;SHT31;56762;49.494;11.768;2024-01-25T04:13:52;6.36;81.52
69543;SHT31;56762;49.494;11.768;2024-01-25T04:16:20;6.39;82.15
69543;SHT31;56762;49.494;11.768;2024-01-25T04:18:48;6.35;82.93
69543;SHT31;56762;49.494;11.768;2024-01-25T04:21:16;6.37;82.53
69543;SHT31;56762;49.494;11.768;2024-01-25T04:23:45;6.33;82.49
69543;SHT31;56762;49.494;11.768;2024-01-25T04:26:14;6.33;82.80
69543;SHT31;56762;49.494;11.768;2024-01-25T04:28:42;6.30;82.99
69543;SHT31;56762;49.494;11.768;2024-01-25T04:31:10;6.30;82.88
69543;SHT31;56762;49.494;11.768;2024-01-25T04:33:38;6.33;82.89
69543;SHT31;56762;49.494;11.768;2024-01-25T04:36:11;6.29;83.38
69543;SHT31;56762;49.494;11.768;2024-01-25T04:38:39;6.30;83.24
69543;SHT31;56762;49.494;11.768;2024-01-25T04:41:08;6.33;82.89
69543;SHT31;56762;49.494;11.768;2024-01-25T04:43:35;6.29;82.88
69543;SHT31;56762;49.494;11.768;2024-01-25T04:46:04;6.30;83.00
69543;SHT31;56762;49.494;11.768;2024-01-25T04:48:32;6.29;83.40
69543;SHT31;56762;49.494;11.768;2024-01-25T04:51:01;6.28;83.07
69543;SHT31;56762;49.494;11.768;2024-01-25T04:53:29;6.22;83.23
69543;SHT31;56762;49.494;11.768;2024-01-25T04:55:57;6.19;83.48
69543;SHT31;56762;49.494;11.768;2024-01-25T04:58:27;6.15;83.50
69543;SHT31;56762;49.494;11.768;2024-01-25T05:00:55;6.09;83.55
69543;SHT31;56762;49.494;11.768;2024-01-25T05:03:23;6.01;83.78
69543;SHT31;56762;49.494;11.768;2024-01-25T05:05:51;5.92;84.02
69543;SHT31;56762;49.494;11.768;2024-01-25T05:08:19;5.95;84.05
69543;SHT31;56762;49.494;11.768;2024-01-25T05:10:47;5.94;84.10
69543;SHT31;56762;49.494;11.768;2024-01-25T05:13:15;5.92;83.58
69543;SHT31;56762;49.494;11.768;2024-01-25T05:15:44;5.85;83.85
69543;SHT31;56762;49.494;11.768;2024-01-25T05:18:12;5.84;83.64
69543;SHT31;56762;49.494;11.768;2024-01-25T05:20:40;5.77;83.73
69543;SHT31;56762;49.494;11.768;2024-01-25T05:23:08;5.73;83.98
69543;SHT31;56762;49.494;11.768;2024-01-25T05:25:35;5.64;84.21
69543;SHT31;56762;49.494;11.768;2024-01-25T05:28:04;5.61;84.40
69543;SHT31;56762;49.494;11.768;2024-01-25T05:30:32;5.60;84.30
69543;SHT31;56762;49.494;11.768;2024-01-25T05:33:01;5.57;84.41
69543;SHT31;56762;49.494;11.768;2024-01-25T05:35:30;5.60;84.04
69543;SHT31;56762;49.494;11.768;2024-01-25T05:38:00;5.60;83.86
69543;SHT31;56762;49.494;11.768;2024-01-25T05:40:28;5.55;83.90
69543;SHT31;56762;49.494;11.768;2024-01-25T05:42:56;5.54;83.72
69543;SHT31;56762;49.494;11.768;2024-01-25T05:45:24;5.50;84.11
69543;SHT31;56762;49.494;11.768;2024-01-25T05:47:52;5.44;84.16
69543;SHT31;56762;49.494;11.768;2024-01-25T05:50:21;5.43;83.96
69543;SHT31;56762;49.494;11.768;2024-01-25T05:52:50;5.40;83.61
69543;SHT31;56762;49.494;11.768;2024-01-25T05:55:18;5.40;83.50
69543;SHT31;56762;49.494;11.768;2024-01-25T05:57:48;5.40;83.76
69543;SHT31;56762;49.494;11.768;2024-01-25T06:00:16;5.44;83.94
69543;SHT31;56762;49.494;11.768;2024-01-25T06:02:47;5.44;83.54
69543;SHT31;56762;49.494;11.768;2024-01-25T06:05:16;5.46;83.51
69543;SHT31;56762;49.494;11.768;2024-01-25T06:07:47;5.39;83.77
69543;SHT31;56762;49.494;11.768;2024-01-25T06:10:17;5.40;83.83
69543;SHT31;56762;49.494;11.768;2024-01-25T06:12:47;5.40;83.44
69543;SHT31;56762;49.494;11.768;2024-01-25T06:15:15;5.40;83.41
69543;SHT31;56762;49.494;11.768;2024-01-25T06:17:43;5.40;83.98
69543;SHT31;56762;49.494;11.768;2024-01-25T06:20:11;5.37;83.65
69543;SHT31;56762;49.494;11.768;2024-01-25T06:22:39;5.32;83.64
69543;SHT31;56762;49.494;11.768;2024-01-25T06:25:09;5.39;83.71
69543;SHT31;56762;49.494;11.768;2024-01-25T06:27:38;5.39;83.83
69543;SHT31;56762;49.494;11.768;2024-01-25T06:30:07;5.34;83.82
69543;SHT31;56762;49.494;11.768;2024-01-25T06:32:35;5.30;83.86
69543;SHT31;56762;49.494;11.768;2024-01-25T06:35:05;5.27;83.91
69543;SHT31;56762;49.494;11.768;2024-01-25T06:37:33;5.23;83.83
69543;SHT31;56762;49.494;11.768;2024-01-25T06:40:01;5.20;84.49
69543;SHT31;56762;49.494;11.768;2024-01-25T06:42:31;5.20;84.20
69543;SHT31;56762;49.494;11.768;2024-01-25T06:44:58;5.16;84.39
69543;SHT31;56762;49.494;11.768;2024-01-25T06:47:26;5.20;84.36
69543;SHT31;56762;49.494;11.768;2024-01-25T06:49:54;5.19;84.33
69543;SHT31;56762;49.494;11.768;2024-01-25T06:52:22;5.19;84.31
69543;SHT31;56762;49.494;11.768;2024-01-25T06:54:53;5.09;84.63
69543;SHT31;56762;49.494;11.768;2024-01-25T06:57:21;5.08;84.72
69543;SHT31;56762;49.494;11.768;2024-01-25T06:59:50;5.03;84.53
69543;SHT31;56762;49.494;11.768;2024-01-25T07:02:18;5.06;84.66
69543;SHT31;56762;49.494;11.768;2024-01-25T07:04:47;5.08;84.62
69543;SHT31;56762;49.494;11.768;2024-01-25T07:07:15;5.09;84.53
69543;SHT31;56762;49.494;11.768;2024-01-25T07:09:44;5.16;84.29
69543;SHT31;56762;49.494;11.768;2024-01-25T07:12:11;5.13;84.26
69543;SHT31;56762;49.494;11.768;2024-01-25T07:14:45;5.19;84.24
69543;SHT31;56762;49.494;11.768;2024-01-25T07:17:15;5.15;84.50
69543;SHT31;56762;49.494;11.768;2024-01-25T07:19:43;5.12;84.42
69543;SHT31;56762;49.494;11.768;2024-01-25T07:22:11;5.09;84.81
69543;SHT31;56762;49.494;11.768;2024-01-25T07:24:40;5.06;84.81
69543;SHT31;56762;49.494;11.768;2024-01-25T07:27:08;5.12;84.80
69543;SHT31;56762;49.494;11.768;2024-01-25T07:29:36;5.16;84.67
69543;SHT31;56762;49.494;11.768;2024-01-25T07:32:05;5.22;84.56
69543;SHT31;56762;49.494;11.768;2024-01-25T07:34:35;5.26;84.20
69543;SHT31;56762;49.494;11.768;2024-01-25T07:37:04;5.30;84.35
69543;SHT31;56762;49.494;11.768;2024-01-25T07:39:32;5.26;84.08
69543;SHT31;56762;49.494;11.768;2024-01-25T07:42:00;5.29;84.79
69543;SHT31;56762;49.494;11.768;2024-01-25T07:44:28;5.32;84.01
69543;SHT31;56762;49.494;11.768;2024-01-25T07:46:56;5.32;84.14
69543;SHT31;56762;49.494;11.768;2024-01-25T07:49:24;5.32;83.84
69543;SHT31;56762;49.494;11.768;2024-01-25T07:51:52;5.37;84.21
69543;SHT31;56762;49.494;11.768;2024-01-25T07:54:20;5.39;84.29
69543;SHT31;56762;49.494;11.768;2024-01-25T07:56:48;5.39;83.57
69543;SHT31;56762;49.494;11.768;2024-01-25T07:59:16;5.44;83.55
69543;SHT31;56762;49.494;11.768;2024-01-25T08:01:44;5.48;83.60
69543;SHT31;56762;49.494;11.768;2024-01-25T08:04:12;5.53;83.39
69543;SHT31;56762;49.494;11.768;2024-01-25T08:06:40;5.54;83.48
69543;SHT31;56762;49.494;11.768;2024-01-25T08:09:10;5.61;83.17
69543;SHT31;56762;49.494;11.768;2024-01-25T08:11:38;5.68;82.29
69543;SHT31;56762;49.494;11.768;2024-01-25T08:14:06;5.74;81.91
69543;SHT31;56762;49.494;11.768;2024-01-25T08:16:34;5.81;81.86
69543;SHT31;56762;49.494;11.768;2024-01-25T08:19:03;5.87;81.79
69543;SHT31;56762;49.494;11.768;2024-01-25T08:21:31;5.87;81.16
69543;SHT31;56762;49.494;11.768;2024-01-25T08:23:59;5.87;81.75
69543;SHT31;56762;49.494;11.768;2024-01-25T08:26:28;5.99;81.82
69543;SHT31;56762;49.494;11.768;2024-01-25T08:28:56;6.11;81.05
69543;SHT31;56762;49.494;11.768;2024-01-25T08:31:24;6.18;81.35
69543;SHT31;56762;49.494;11.768;2024-01-25T08:33:52;6.25;81.02
69543;SHT31;56762;49.494;11.768;2024-01-25T08:36:21;6.30;81.30
69543;SHT31;56762;49.494;11.768;2024-01-25T08:38:50;6.36;80.98
69543;SHT31;56762;49.494;11.768;2024-01-25T08:41:19;6.36;80.11
69543;SHT31;56762;49.494;11.768;2024-01-25T08:43:48;6.40;79.65
69543;SHT31;56762;49.494;11.768;2024-01-25T08:46:16;6.47;79.50
69543;SHT31;56762;49.494;11.768;2024-01-25T08:48:44;6.43;79.90
69543;SHT31;56762;49.494;11.768;2024-01-25T08:51:12;6.44;79.57
69543;SHT31;56762;49.494;11.768;2024-01-25T08:53:40;6.47;79.81
69543;SHT31;56762;49.494;11.768;2024-01-25T08:56:08;6.39;79.80
69543;SHT31;56762;49.494;11.768;2024-01-25T08:58:37;6.39;78.80
69543;SHT31;56762;49.494;11.768;2024-01-25T09:01:06;6.35;79.17
69543;SHT31;56762;49.494;11.768;2024-01-25T09:03:35;6.36;79.19
69543;SHT31;56762;49.494;11.768;2024-01-25T09:06:03;6.40;79.27
69543;SHT31;56762;49.494;11.768;2024-01-25T09:08:33;6.44;79.50
69543;SHT31;56762;49.494;11.768;2024-01-25T09:11:01;6.54;79.38
69543;SHT31;56762;49.494;11.768;2024-01-25T09:13:29;6.66;78.95
69543;SHT31;56762;49.494;11.768;2024-01-25T09:16:11;6.77;78.43
69543;SHT31;56762;49.494;11.768;2024-01-25T09:18:40;6.79;78.10
69543;SHT31;56762;49.494;11.768;2024-01-25T09:21:08;6.74;77.87
69543;SHT31;56762;49.494;11.768;2024-01-25T09:23:36;6.76;77.84
69543;SHT31;56762;49.494;11.768;2024-01-25T09:26:04;6.77;78.01
69543;SHT31;56762;49.494;11.768;2024-01-25T09:28:32;6.81;77.60
69543;SHT31;56762;49.494;11.768;2024-01-25T09:31:00;6.76;77.92
69543;SHT31;56762;49.494;11.768;2024-01-25T09:33:32;6.73;77.45
69543;SHT31;56762;49.494;11.768;2024-01-25T09:36:01;6.73;77.24
69543;SHT31;56762;49.494;11.768;2024-01-25T09:38:29;6.76;77.12
69543;SHT31;56762;49.494;11.768;2024-01-25T09:40:57;6.72;77.53
69543;SHT31;56762;49.494;11.768;2024-01-25T09:43:27;6.69;77.85
69543;SHT31;56762;49.494;11.768;2024-01-25T09:45:54;6.67;78.13
69543;SHT31;56762;49.494;11.768;2024-01-25T09:48:23;6.66;77.98
69543;SHT31;56762;49.494;11.768;2024-01-25T09:50:52;6.60;77.94
69543;SHT31;56762;49.494;11.768;2024-01-25T09:53:23;6.64;78.15
69543;SHT31;56762;49.494;11.768;2024-01-25T09:55:59;6.64;77.28
69543;SHT31;56762;49.494;11.768;2024-01-25T09:58:32;6.64;78.59
69543;SHT31;56762;49.494;11.768;2024-01-25T10:01:02;6.62;77.78
69543;SHT31;56762;49.494;11.768;2024-01-25T10:03:30;6.57;77.91
69543;SHT31;56762;49.494;11.768;2024-01-25T10:06:00;6.52;77.97
69543;SHT31;56762;49.494;11.768;2024-01-25T10:08:30;6.52;77.64
69543;SHT31;56762;49.494;11.768;2024-01-25T10:10:59;6.54;76.83
69543;SHT31;56762;49.494;11.768;2024-01-25T10:13:26;6.62;76.60
69543;SHT31;56762;49.494;11.768;2024-01-25T10:15:55;6.67;76.53
69543;SHT31;56762;49.494;11.768;2024-01-25T10:18:24;6.72;76.96
69543;SHT31;56762;49.494;11.768;2024-01-25T10:20:56;6.83;76.83
69543;SHT31;56762;49.494;11.768;2024-01-25T10:23:28;6.90;75.75
69543;SHT31;56762;49.494;11.768;2024-01-25T10:25:56;6.95;76.12
69543;SHT31;56762;49.494;11.768;2024-01-25T10:28:25;6.98;75.27
69543;SHT31;56762;49.494;11.768;2024-01-25T10:30:55;7.01;75.40
69543;SHT31;56762;49.494;11.768;2024-01-25T10:33:24;7.12;74.39
69543;SHT31;56762;49.494;11.768;2024-01-25T10:35:54;7.11;73.68
69543;SHT31;56762;49.494;11.768;2024-01-25T10:38:23;7.14;74.01
69543;SHT31;56762;49.494;11.768;2024-01-25T10:40:53;7.14;72.60
69543;SHT31;56762;49.494;11.768;2024-01-25T10:43:21;7.14;72.44
69543;SHT31;56762;49.494;11.768;2024-01-25T10:45:49;7.16;72.87
69543;SHT31;56762;49.494;11.768;2024-01-25T10:48:22;7.18;71.93
69543;SHT31;56762;49.494;11.768;2024-01-25T10:50:50;7.24;71.14
69543;SHT31;56762;49.494;11.768;2024-01-25T10:53:19;7.22;71.49
69543;SHT31;56762;49.494;11.768;2024-01-25T10:55:47;7.18;72.11
69543;SHT31;56762;49.494;11.768;2024-01-25T10:58:17;7.24;72.00
69543;SHT31;56762;49.494;11.768;2024-01-25T11:00:51;7.26;72.88
69543;SHT31;56762;49.494;11.768;2024-01-25T11:03:20;7.26;73.65
69543;SHT31;56762;49.494;11.768;2024-01-25T11:05:48;7.29;72.57
69543;SHT31;56762;49.494;11.768;2024-01-25T11:08:18;7.29;71.82
69543;SHT31;56762;49.494;11.768;2024-01-25T11:10:50;7.28;73.65
69543;SHT31;56762;49.494;11.768;2024-01-25T11:13:26;7.29;73.11
69543;SHT31;56762;49.494;11.768;2024-01-25T11:15:54;7.24;71.88
69543;SHT31;56762;49.494;11.768;2024-01-25T11:18:25;7.31;72.24
69543;SHT31;56762;49.494;11.768;2024-01-25T11:20:53;7.31;72.15
69543;SHT31;56762;49.494;11.768;2024-01-25T11:23:31;7.29;71.87
69543;SHT31;56762;49.494;11.768;2024-01-25T11:25:59;7.34;72.69
69543;SHT31;56762;49.494;11.768;2024-01-25T11:28:29;7.38;72.51
69543;SHT31;56762;49.494;11.768;2024-01-25T11:30:57;7.39;73.52
69543;SHT31;56762;49.494;11.768;2024-01-25T11:33:25;7.41;72.76
69543;SHT31;56762;49.494;11.768;2024-01-25T11:35:56;7.41;72.33
69543;SHT31;56762;49.494;11.768;2024-01-25T11:38:24;7.29;73.33
69543;SHT31;56762;49.494;11.768;2024-01-25T11:40:52;7.31;72.38
69543;SHT31;56762;49.494;11.768;2024-01-25T11:43:20;7.34;72.10
69543;SHT31;56762;49.494;11.768;2024-01-25T11:45:49;7.29;72.11
69543;SHT31;56762;49.494;11.768;2024-01-25T11:48:18;7.31;72.94
69543;SHT31;56762;49.494;11.768;2024-01-25T11:50:46;7.34;72.56
69543;SHT31;56762;49.494;11.768;2024-01-25T11:53:14;7.35;72.49
69543;SHT31;56762;49.494;11.768;2024-01-25T11:55:42;7.35;72.16
69543;SHT31;56762;49.494;11.768;2024-01-25T11:58:10;7.35;71.84
69543;SHT31;56762;49.494;11.768;2024-01-25T12:00:38;7.34;72.44
69543;SHT31;56762;49.494;11.768;2024-01-25T12:03:08;7.29;72.25
69543;SHT31;56762;49.494;11.768;2024-01-25T12:05:36;7.25;72.37
69543;SHT31;56762;49.494;11.768;2024-01-25T12:08:08;7.31;73.46
69543;SHT31;56762;49.494;11.768;2024-01-25T12:10:36;7.35;72.40
69543;SHT31;56762;49.494;11.768;2024-01-25T12:13:06;7.35;72.30
69543;SHT31;56762;49.494;11.768;2024-01-25T12:15:35;7.35;72.62
69543;SHT31;56762;49.494;11.768;2024-01-25T12:18:05;7.39;71.79
69543;SHT31;56762;49.494;11.768;2024-01-25T12:20:36;7.39;72.16
69543;SHT31;56762;49.494;11.768;2024-01-25T12:23:05;7.34;71.63
69543;SHT31;56762;49.494;11.768;2024-01-25T12:25:39;7.32;72.61
69543;SHT31;56762;49.494;11.768;2024-01-25T12:28:07;7.26;71.51
69543;SHT31;56762;49.494;11.768;2024-01-25T12:30:35;7.21;71.61
69543;SHT31;56762;49.494;11.768;2024-01-25T12:33:03;7.24;71.59
69543;SHT31;56762;49.494;11.768;2024-01-25T12:35:31;7.31;72.80
69543;SHT31;56762;49.494;11.768;2024-01-25T12:38:01;7.28;71.79
69543;SHT31;56762;49.494;11.768;2024-01-25T12:40:30;7.31;72.27
69543;SHT31;56762;49.494;11.768;2024-01-25T12:42:58;7.34;72.00
69543;SHT31;56762;49.494;11.768;2024-01-25T12:45:25;7.41;72.28
69543;SHT31;56762;49.494;11.768;2024-01-25T12:47:53;7.49;71.64
69543;SHT31;56762;49.494;11.768;2024-01-25T12:50:21;7.48;71.06
69543;SHT31;56762;49.494;11.768;2024-01-25T12:52:50;7.45;71.18
69543;SHT31;56762;49.494;11.768;2024-01-25T12:55:19;7.46;71.14
69543;SHT31;56762;49.494;11.768;2024-01-25T12:57:47;7.45;71.00
69543;SHT31;56762;49.494;11.768;2024-01-25T13:00:16;7.48;70.41
69543;SHT31;56762;49.494;11.768;2024-01-25T13:02:44;7.49;69.66
69543;SHT31;56762;49.494;11.768;2024-01-25T13:05:13;7.59;71.94
69543;SHT31;56762;49.494;11.768;2024-01-25T13:07:42;7.55;71.00
69543;SHT31;56762;49.494;11.768;2024-01-25T13:10:10;7.54;70.66
69543;SHT31;56762;49.494;11.768;2024-01-25T13:12:41;7.54;69.87
69543;SHT31;56762;49.494;11.768;2024-01-25T13:15:10;7.55;69.38
69543;SHT31;56762;49.494;11.768;2024-01-25T13:17:38;7.52;70.72
69543;SHT31;56762;49.494;11.768;2024-01-25T13:20:07;7.55;71.87
69543;SHT31;56762;49.494;11.768;2024-01-25T13:22:35;7.52;70.37
69543;SHT31;56762;49.494;11.768;2024-01-25T13:25:03;7.49;70.20
69543;SHT31;56762;49.494;11.768;2024-01-25T13:27:32;7.51;70.97
69543;SHT31;56762;49.494;11.768;2024-01-25T13:30:02;7.48;70.18
69543;SHT31;56762;49.494;11.768;2024-01-25T13:32:32;7.49;70.35
69543;SHT31;56762;49.494;11.768;2024-01-25T13:34:59;7.49;70.26
69543;SHT31;56762;49.494;11.768;2024-01-25T13:37:28;7.44;70.81
69543;SHT31;56762;49.494;11.768;2024-01-25T13:39:55;7.38;71.74
69543;SHT31;56762;49.494;11.768;2024-01-25T13:42:23;7.29;71.30
69543;SHT31;56762;49.494;11.768;2024-01-25T13:44:51;7.19;71.74
69543;SHT31;56762;49.494;11.768;2024-01-25T13:47:20;7.09;72.21
69543;SHT31;56762;49.494;11.768;2024-01-25T13:49:49;7.05;72.85
69543;SHT31;56762;49.494;11.768;2024-01-25T13:52:18;6.98;72.08
69543;SHT31;56762;49.494;11.768;2024-01-25T13:54:47;6.93;72.23
69543;SHT31;56762;49.494;11.768;2024-01-25T13:57:16;6.85;72.75
69543;SHT31;56762;49.494;11.768;2024-01-25T13:59:44;6.83;72.81
69543;SHT31;56762;49.494;11.768;2024-01-25T14:02:12;6.83;72.76
69543;SHT31;56762;49.494;11.768;2024-01-25T14:04:41;6.77;73.66
69543;SHT31;56762;49.494;11.768;2024-01-25T14:07:09;6.77;73.35
69543;SHT31;56762;49.494;11.768;2024-01-25T14:09:37;6.73;73.76
69543;SHT31;56762;49.494;11.768;2024-01-25T14:12:08;6.74;73.26
69543;SHT31;56762;49.494;11.768;2024-01-25T14:14:37;6.72;74.09
69543;SHT31;56762;49.494;11.768;2024-01-25T14:17:06;6.69;73.92
69543;SHT31;56762;49.494;11.768;2024-01-25T14:19:34;6.64;74.09
69543;SHT31;56762;49.494;11.768;2024-01-25T14:22:04;6.62;74.59
69543;SHT31;56762;49.494;11.768;2024-01-25T14:24:52;6.56;74.66
69543;SHT31;56762;49.494;11.768;2024-01-25T14:27:20;6.52;74.87
69543;SHT31;56762;49.494;11.768;2024-01-25T14:29:48;6.44;74.64
69543;SHT31;56762;49.494;11.768;2024-01-25T14:32:17;6.44;73.68
69543;SHT31;56762;49.494;11.768;2024-01-25T14:34:48;6.39;74.30
69543;SHT31;56762;49.494;11.768;2024-01-25T14:37:18;6.36;74.73
69543;SHT31;56762;49.494;11.768;2024-01-25T14:39:45;6.33;73.84
69543;SHT31;56762;49.494;11.768;2024-01-25T14:42:33;6.33;74.52
69543;SHT31;56762;49.494;11.768;2024-01-25T14:45:01;6.26;74.95
69543;SHT31;56762;49.494;11.768;2024-01-25T14:47:30;6.23;75.04
69543;SHT31;56762;49.494;11.768;2024-01-25T14:49:57;6.22;76.17
69543;SHT31;56762;49.494;11.768;2024-01-25T14:52:26;6.21;76.22
69543;SHT31;56762;49.494;11.768;2024-01-25T14:54:54;6.15;76.29
69543;SHT31;56762;49.494;11.768;2024-01-25T14:57:22;6.09;75.40
69543;SHT31;56762;49.494;11.768;2024-01-25T14:59:50;6.01;75.94
69543;SHT31;56762;49.494;11.768;2024-01-25T15:02:18;5.98;76.15
69543;SHT31;56762;49.494;11.768;2024-01-25T15:04:46;5.97;75.57
69543;SHT31;56762;49.494;11.768;2024-01-25T15:07:14;5.94;74.03
69543;SHT31;56762;49.494;11.768;2024-01-25T15:09:45;5.87;75.25
69543;SHT31;56762;49.494;11.768;2024-01-25T15:12:12;5.85;74.39
69543;SHT31;56762;49.494;11.768;2024-01-25T15:14:41;5.79;74.77
69543;SHT31;56762;49.494;11.768;2024-01-25T15:17:08;5.77;74.38
69543;SHT31;56762;49.494;11.768;2024-01-25T15:19:37;5.71;74.91
69543;SHT31;56762;49.494;11.768;2024-01-25T15:22:05;5.65;75.85
69543;SHT31;56762;49.494;11.768;2024-01-25T15:24:32;5.60;75.31
69543;SHT31;56762;49.494;11.768;2024-01-25T15:27:02;5.58;75.45
69543;SHT31;56762;49.494;11.768;2024-01-25T15:29:32;5.53;75.73
69543;SHT31;56762;49.494;11.768;2024-01-25T15:32:00;5.47;76.35
69543;SHT31;56762;49.494;11.768;2024-01-25T15:34:28;5.40;76.37
69543;SHT31;56762;49.494;11.768;2024-01-25T15:36:56;5.34;76.73
69543;SHT31;56762;49.494;11.768;2024-01-25T15:39:25;5.32;76.26